MOL Explorer — 3EKT8 — position and weather

sailwx.info

Track history (hours):
 
Tides and Currents Weather Stations Pressure Air Temp Water Temp Dewpoint Dewpoint Depression Visibility Wind Speed Wind Dir Waves Ship Positions

MOL Explorer

Last reported at 2016-Dec-11 09:27 UTC. Time now 2016-Dec-11 13:57 UTC.
Position N 01°11' E 103°50'.

Length 293 m; draft 12.8 m.

Type: Ship (hazmat cat A). MMSI: 372827000.

Date/timePositionNaut miles runAvg speedWind from/ knotsBaromVisibWave heightAir tempDewpointWater temp
2016-Dec-11 09:27N 01°11' E 103°50'4 4.9
2016-Dec-11 08:33N 01°16' E 103°51'0 0.2
2016-Dec-11 07:19N 01°16' E 103°50'0 0.0
2016-Dec-11 06:22N 01°16' E 103°50'0 0.0
2016-Dec-11 05:31N 01°16' E 103°50'0 0.0
2016-Dec-11 03:31N 01°16' E 103°50'0 0.0
2016-Dec-11 02:31N 01°16' E 103°50'0 0.0
2016-Dec-11 01:25N 01°16' E 103°50'0 0.0
2016-Dec-11 00:25N 01°16' E 103°50'0 0.0
2016-Dec-10 23:25N 01°16' E 103°50'0 0.0
2016-Dec-10 22:31N 01°16' E 103°50'0 0.0
2016-Dec-10 21:31N 01°16' E 103°50'0 0.0
2016-Dec-10 20:31N 01°16' E 103°50'0 0.0
2016-Dec-10 19:31N 01°16' E 103°50'0 0.0
2016-Dec-10 18:31N 01°16' E 103°50'0 0.0
2016-Dec-10 17:31N 01°16' E 103°50'0 0.0
2016-Dec-10 16:31N 01°16' E 103°50'0 0.1
2016-Dec-10 15:31N 01°16' E 103°50'0 0.1
2016-Dec-10 14:31N 01°16' E 103°50'0 0.5
2016-Dec-10 13:33N 01°16' E 103°51'2 2.1
2016-Dec-10 12:33N 01°14' E 103°52'  
2016-Dec-07 06:33N 22°20' E 114°07'0 0.0
2016-Dec-06 15:14N 22°20' E 114°07'  
2016-Dec-02 12:33N 35°10' E 139°45'1211.9
2016-Dec-02 11:33N 35°21' E 139°42'1313.4
2016-Dec-02 10:34N 35°33' E 139°51'5 5.0
2016-Dec-02 09:31N 35°36' E 139°46'0 0.0
2016-Dec-02 08:31N 35°36' E 139°46'0 0.0
2016-Dec-02 07:31N 35°36' E 139°46'0 0.0
2016-Dec-02 06:31N 35°36' E 139°46'0 0.0
2016-Dec-02 05:31N 35°36' E 139°46'0 0.0
2016-Dec-02 04:19N 35°36' E 139°46'0 0.0
2016-Dec-02 03:31N 35°36' E 139°46'0 0.0
2016-Dec-02 02:31N 35°36' E 139°46'0 0.0
2016-Dec-02 01:31N 35°36' E 139°46'0 0.0
2016-Dec-02 00:31N 35°36' E 139°46'0 0.0
2016-Dec-01 23:31N 35°36' E 139°46'0 0.0
2016-Dec-01 22:31N 35°36' E 139°46'0 0.0
2016-Dec-01 21:31N 35°36' E 139°46'0 0.0
2016-Dec-01 20:31N 35°36' E 139°46'0 0.0
2016-Dec-01 19:31N 35°36' E 139°46'0 0.0
2016-Dec-01 18:31N 35°36' E 139°46'0 0.0
2016-Dec-01 17:28N 35°36' E 139°46'0 0.0
2016-Dec-01 16:31N 35°36' E 139°46'0 0.0
2016-Dec-01 15:31N 35°36' E 139°46'0 0.0
2016-Dec-01 14:28N 35°36' E 139°46'0 0.0
2016-Dec-01 13:28N 35°36' E 139°46'0 0.0
2016-Dec-01 12:31N 35°36' E 139°46'2 1.6
2016-Dec-01 11:33N 35°35' E 139°47'8 8.4
2016-Dec-01 10:34N 35°27' E 139°47'5 5.1
2016-Dec-01 09:33N 35°26' E 139°41'  
Track history (hours):
 
Tides and Currents Weather Stations Pressure Air Temp Water Temp Dewpoint Dewpoint Depression Visibility Wind Speed Wind Dir Waves Ship Positions

MOL Explorer

Last reported at 2016-Dec-11 09:27 UTC. Time now 2016-Dec-11 13:57 UTC.
Position N 01°11' E 103°50'.

Length 293 m; draft 12.8 m.

Type: Ship (hazmat cat A). MMSI: 372827000.

Date/timePositionNaut miles runAvg speedWind from/ knotsBaromVisibWave heightAir tempDewpointWater temp
2016-Dec-11 09:27N 01°11' E 103°50'4 4.9
2016-Dec-11 08:33N 01°16' E 103°51'0 0.2
2016-Dec-11 07:19N 01°16' E 103°50'0 0.0
2016-Dec-11 06:22N 01°16' E 103°50'0 0.0
2016-Dec-11 05:31N 01°16' E 103°50'0 0.0
2016-Dec-11 03:31N 01°16' E 103°50'0 0.0
2016-Dec-11 02:31N 01°16' E 103°50'0 0.0
2016-Dec-11 01:25N 01°16' E 103°50'0 0.0
2016-Dec-11 00:25N 01°16' E 103°50'0 0.0
2016-Dec-10 23:25N 01°16' E 103°50'0 0.0
2016-Dec-10 22:31N 01°16' E 103°50'0 0.0
2016-Dec-10 21:31N 01°16' E 103°50'0 0.0
2016-Dec-10 20:31N 01°16' E 103°50'0 0.0
2016-Dec-10 19:31N 01°16' E 103°50'0 0.0
2016-Dec-10 18:31N 01°16' E 103°50'0 0.0
2016-Dec-10 17:31N 01°16' E 103°50'0 0.0
2016-Dec-10 16:31N 01°16' E 103°50'0 0.1
2016-Dec-10 15:31N 01°16' E 103°50'0 0.1
2016-Dec-10 14:31N 01°16' E 103°50'0 0.5
2016-Dec-10 13:33N 01°16' E 103°51'2 2.1
2016-Dec-10 12:33N 01°14' E 103°52'  
2016-Dec-07 06:33N 22°20' E 114°07'0 0.0
2016-Dec-06 15:14N 22°20' E 114°07'  
2016-Dec-02 12:33N 35°10' E 139°45'1211.9
2016-Dec-02 11:33N 35°21' E 139°42'1313.4
2016-Dec-02 10:34N 35°33' E 139°51'5 5.0
2016-Dec-02 09:31N 35°36' E 139°46'0 0.0
2016-Dec-02 08:31N 35°36' E 139°46'0 0.0
2016-Dec-02 07:31N 35°36' E 139°46'0 0.0
2016-Dec-02 06:31N 35°36' E 139°46'0 0.0
2016-Dec-02 05:31N 35°36' E 139°46'0 0.0
2016-Dec-02 04:19N 35°36' E 139°46'0 0.0
2016-Dec-02 03:31N 35°36' E 139°46'0 0.0
2016-Dec-02 02:31N 35°36' E 139°46'0 0.0
2016-Dec-02 01:31N 35°36' E 139°46'0 0.0
2016-Dec-02 00:31N 35°36' E 139°46'0 0.0
2016-Dec-01 23:31N 35°36' E 139°46'0 0.0
2016-Dec-01 22:31N 35°36' E 139°46'0 0.0
2016-Dec-01 21:31N 35°36' E 139°46'0 0.0
2016-Dec-01 20:31N 35°36' E 139°46'0 0.0
2016-Dec-01 19:31N 35°36' E 139°46'0 0.0
2016-Dec-01 18:31N 35°36' E 139°46'0 0.0
2016-Dec-01 17:28N 35°36' E 139°46'0 0.0
2016-Dec-01 16:31N 35°36' E 139°46'0 0.0
2016-Dec-01 15:31N 35°36' E 139°46'0 0.0
2016-Dec-01 14:28N 35°36' E 139°46'0 0.0
2016-Dec-01 13:28N 35°36' E 139°46'0 0.0
2016-Dec-01 12:31N 35°36' E 139°46'2 1.6
2016-Dec-01 11:33N 35°35' E 139°47'8 8.4
2016-Dec-01 10:34N 35°27' E 139°47'5 5.1
2016-Dec-01 09:33N 35°26' E 139°41'  

Dump ship's entire track history